sensor_id;sensor_type;location;lat;lon;timestamp;P1;durP1;ratioP1;P2;durP2;ratioP2
68074;SDS011;54864;52.002;5.468;2023-03-25T00:00:29;15.43;;;4.30;;
68074;SDS011;54864;52.002;5.468;2023-03-25T00:01:32;14.57;;;3.20;;
68074;SDS011;54864;52.002;5.468;2023-03-25T00:02:33;20.23;;;3.65;;
68074;SDS011;54864;52.002;5.468;2023-03-25T00:03:37;18.10;;;3.53;;
68074;SDS011;54864;52.002;5.468;2023-03-25T00:04:37;22.33;;;3.80;;
68074;SDS011;54864;52.002;5.468;2023-03-25T00:05:40;19.85;;;3.63;;
68074;SDS011;54864;52.002;5.468;2023-03-25T00:06:40;16.27;;;4.22;;
68074;SDS011;54864;52.002;5.468;2023-03-25T00:07:42;13.20;;;3.58;;
68074;SDS011;54864;52.002;5.468;2023-03-25T00:08:44;23.60;;;4.18;;
68074;SDS011;54864;52.002;5.468;2023-03-25T00:09:46;16.77;;;3.97;;
68074;SDS011;54864;52.002;5.468;2023-03-25T00:10:50;14.85;;;4.03;;
68074;SDS011;54864;52.002;5.468;2023-03-25T00:11:55;17.10;;;4.32;;
68074;SDS011;54864;52.002;5.468;2023-03-25T00:12:55;19.58;;;4.53;;
68074;SDS011;54864;52.002;5.468;2023-03-25T00:14:03;16.25;;;4.40;;
68074;SDS011;54864;52.002;5.468;2023-03-25T00:15:05;24.35;;;4.30;;
68074;SDS011;54864;52.002;5.468;2023-03-25T00:16:08;18.42;;;4.47;;
68074;SDS011;54864;52.002;5.468;2023-03-25T00:17:10;17.80;;;4.22;;
68074;SDS011;54864;52.002;5.468;2023-03-25T00:18:19;16.95;;;4.53;;
68074;SDS011;54864;52.002;5.468;2023-03-25T00:19:21;18.92;;;4.28;;
68074;SDS011;54864;52.002;5.468;2023-03-25T00:20:22;20.70;;;4.68;;
68074;SDS011;54864;52.002;5.468;2023-03-25T00:21:24;15.57;;;4.20;;
68074;SDS011;54864;52.002;5.468;2023-03-25T00:22:25;15.17;;;3.93;;
68074;SDS011;54864;52.002;5.468;2023-03-25T00:23:27;14.65;;;3.55;;
68074;SDS011;54864;52.002;5.468;2023-03-25T00:24:29;15.88;;;3.80;;
68074;SDS011;54864;52.002;5.468;2023-03-25T00:25:31;19.45;;;3.95;;
68074;SDS011;54864;52.002;5.468;2023-03-25T00:26:32;22.25;;;4.45;;
68074;SDS011;54864;52.002;5.468;2023-03-25T00:27:35;21.20;;;4.80;;
68074;SDS011;54864;52.002;5.468;2023-03-25T00:28:37;18.35;;;3.78;;
68074;SDS011;54864;52.002;5.468;2023-03-25T00:29:39;19.60;;;3.58;;
68074;SDS011;54864;52.002;5.468;2023-03-25T00:30:41;20.05;;;4.35;;
68074;SDS011;54864;52.002;5.468;2023-03-25T00:31:44;19.52;;;4.15;;
68074;SDS011;54864;52.002;5.468;2023-03-25T00:32:45;13.80;;;3.85;;
68074;SDS011;54864;52.002;5.468;2023-03-25T00:33:51;14.63;;;4.03;;
68074;SDS011;54864;52.002;5.468;2023-03-25T00:34:52;18.25;;;3.97;;
68074;SDS011;54864;52.002;5.468;2023-03-25T00:35:54;15.77;;;4.75;;
68074;SDS011;54864;52.002;5.468;2023-03-25T00:36:58;21.45;;;4.78;;
68074;SDS011;54864;52.002;5.468;2023-03-25T00:38:01;18.95;;;4.07;;
68074;SDS011;54864;52.002;5.468;2023-03-25T00:39:02;16.55;;;4.25;;
68074;SDS011;54864;52.002;5.468;2023-03-25T00:40:05;17.45;;;4.60;;
68074;SDS011;54864;52.002;5.468;2023-03-25T00:41:11;21.90;;;4.25;;
68074;SDS011;54864;52.002;5.468;2023-03-25T00:42:16;19.15;;;4.32;;
68074;SDS011;54864;52.002;5.468;2023-03-25T00:43:26;21.02;;;5.13;;
68074;SDS011;54864;52.002;5.468;2023-03-25T00:44:28;16.13;;;3.80;;
68074;SDS011;54864;52.002;5.468;2023-03-25T00:45:29;16.35;;;4.45;;
68074;SDS011;54864;52.002;5.468;2023-03-25T00:46:32;19.33;;;4.18;;
68074;SDS011;54864;52.002;5.468;2023-03-25T00:47:33;17.73;;;4.65;;
68074;SDS011;54864;52.002;5.468;2023-03-25T00:48:35;17.58;;;4.65;;
68074;SDS011;54864;52.002;5.468;2023-03-25T00:49:37;17.42;;;4.57;;
68074;SDS011;54864;52.002;5.468;2023-03-25T00:50:38;20.08;;;4.55;;
68074;SDS011;54864;52.002;5.468;2023-03-25T00:51:40;19.77;;;4.50;;
68074;SDS011;54864;52.002;5.468;2023-03-25T00:52:42;14.88;;;3.75;;
68074;SDS011;54864;52.002;5.468;2023-03-25T00:53:43;20.40;;;4.22;;
68074;SDS011;54864;52.002;5.468;2023-03-25T00:54:45;19.27;;;4.72;;
68074;SDS011;54864;52.002;5.468;2023-03-25T00:55:46;16.42;;;4.20;;
68074;SDS011;54864;52.002;5.468;2023-03-25T00:56:47;20.02;;;4.60;;
68074;SDS011;54864;52.002;5.468;2023-03-25T00:57:48;18.90;;;5.10;;
68074;SDS011;54864;52.002;5.468;2023-03-25T00:58:52;12.77;;;4.10;;
68074;SDS011;54864;52.002;5.468;2023-03-25T00:59:52;17.15;;;4.07;;
68074;SDS011;54864;52.002;5.468;2023-03-25T01:00:54;17.48;;;4.00;;
68074;SDS011;54864;52.002;5.468;2023-03-25T01:01:55;18.13;;;4.22;;
68074;SDS011;54864;52.002;5.468;2023-03-25T01:02:57;16.08;;;4.32;;
68074;SDS011;54864;52.002;5.468;2023-03-25T01:03:58;19.13;;;4.38;;
68074;SDS011;54864;52.002;5.468;2023-03-25T01:05:00;15.43;;;3.83;;
68074;SDS011;54864;52.002;5.468;2023-03-25T01:06:01;16.80;;;3.75;;
68074;SDS011;54864;52.002;5.468;2023-03-25T01:07:03;16.70;;;3.78;;
68074;SDS011;54864;52.002;5.468;2023-03-25T01:08:04;17.03;;;3.83;;
68074;SDS011;54864;52.002;5.468;2023-03-25T01:09:07;17.25;;;4.05;;
68074;SDS011;54864;52.002;5.468;2023-03-25T01:10:08;14.13;;;3.88;;
68074;SDS011;54864;52.002;5.468;2023-03-25T01:11:16;16.90;;;4.07;;
68074;SDS011;54864;52.002;5.468;2023-03-25T01:12:19;17.25;;;4.10;;
68074;SDS011;54864;52.002;5.468;2023-03-25T01:13:21;19.48;;;4.00;;
68074;SDS011;54864;52.002;5.468;2023-03-25T01:14:24;21.75;;;4.07;;
68074;SDS011;54864;52.002;5.468;2023-03-25T01:15:26;19.95;;;3.97;;
68074;SDS011;54864;52.002;5.468;2023-03-25T01:16:27;19.50;;;4.00;;
68074;SDS011;54864;52.002;5.468;2023-03-25T01:17:29;13.65;;;3.60;;
68074;SDS011;54864;52.002;5.468;2023-03-25T01:18:30;18.33;;;4.15;;
68074;SDS011;54864;52.002;5.468;2023-03-25T01:19:34;20.40;;;4.88;;
68074;SDS011;54864;52.002;5.468;2023-03-25T01:20:34;14.40;;;3.55;;
68074;SDS011;54864;52.002;5.468;2023-03-25T01:21:36;16.08;;;3.75;;
68074;SDS011;54864;52.002;5.468;2023-03-25T01:22:37;15.00;;;3.80;;
68074;SDS011;54864;52.002;5.468;2023-03-25T01:23:38;17.95;;;4.20;;
68074;SDS011;54864;52.002;5.468;2023-03-25T01:24:39;19.33;;;4.18;;
68074;SDS011;54864;52.002;5.468;2023-03-25T01:25:41;19.95;;;4.47;;
68074;SDS011;54864;52.002;5.468;2023-03-25T01:26:43;19.02;;;4.22;;
68074;SDS011;54864;52.002;5.468;2023-03-25T01:27:47;17.33;;;4.60;;
68074;SDS011;54864;52.002;5.468;2023-03-25T01:28:47;23.88;;;5.22;;
68074;SDS011;54864;52.002;5.468;2023-03-25T01:29:50;19.88;;;4.25;;
68074;SDS011;54864;52.002;5.468;2023-03-25T01:30:58;15.05;;;4.25;;
68074;SDS011;54864;52.002;5.468;2023-03-25T01:32:00;14.43;;;3.30;;
68074;SDS011;54864;52.002;5.468;2023-03-25T01:33:01;16.73;;;3.47;;
68074;SDS011;54864;52.002;5.468;2023-03-25T01:34:03;19.10;;;3.95;;
68074;SDS011;54864;52.002;5.468;2023-03-25T01:35:04;21.30;;;4.63;;
68074;SDS011;54864;52.002;5.468;2023-03-25T01:36:07;14.85;;;3.88;;
68074;SDS011;54864;52.002;5.468;2023-03-25T01:37:08;18.08;;;4.10;;
68074;SDS011;54864;52.002;5.468;2023-03-25T01:38:10;18.40;;;3.95;;
68074;SDS011;54864;52.002;5.468;2023-03-25T01:39:11;22.37;;;4.17;;
68074;SDS011;54864;52.002;5.468;2023-03-25T01:40:16;16.63;;;4.00;;
68074;SDS011;54864;52.002;5.468;2023-03-25T01:41:19;20.73;;;4.00;;
68074;SDS011;54864;52.002;5.468;2023-03-25T01:42:20;17.40;;;4.05;;
68074;SDS011;54864;52.002;5.468;2023-03-25T01:43:21;22.80;;;4.38;;
68074;SDS011;54864;52.002;5.468;2023-03-25T01:46:03;22.90;;;5.55;;
68074;SDS011;54864;52.002;5.468;2023-03-25T01:47:05;16.67;;;3.63;;
68074;SDS011;54864;52.002;5.468;2023-03-25T01:48:08;19.23;;;4.70;;
68074;SDS011;54864;52.002;5.468;2023-03-25T01:49:17;19.42;;;4.28;;
68074;SDS011;54864;52.002;5.468;2023-03-25T01:50:24;17.80;;;3.42;;
68074;SDS011;54864;52.002;5.468;2023-03-25T01:51:28;15.98;;;3.47;;
68074;SDS011;54864;52.002;5.468;2023-03-25T01:52:31;16.75;;;3.70;;
68074;SDS011;54864;52.002;5.468;2023-03-25T01:53:33;15.95;;;3.58;;
68074;SDS011;54864;52.002;5.468;2023-03-25T01:54:34;14.35;;;4.10;;
68074;SDS011;54864;52.002;5.468;2023-03-25T01:55:37;16.88;;;4.45;;
68074;SDS011;54864;52.002;5.468;2023-03-25T01:56:39;16.17;;;3.47;;
68074;SDS011;54864;52.002;5.468;2023-03-25T01:57:42;20.50;;;4.90;;
68074;SDS011;54864;52.002;5.468;2023-03-25T01:58:45;11.82;;;3.38;;
68074;SDS011;54864;52.002;5.468;2023-03-25T01:59:47;16.52;;;3.58;;
68074;SDS011;54864;52.002;5.468;2023-03-25T02:00:49;13.15;;;3.30;;
68074;SDS011;54864;52.002;5.468;2023-03-25T02:01:52;18.83;;;4.03;;
68074;SDS011;54864;52.002;5.468;2023-03-25T02:02:56;14.30;;;3.45;;
68074;SDS011;54864;52.002;5.468;2023-03-25T02:03:59;16.17;;;3.72;;
68074;SDS011;54864;52.002;5.468;2023-03-25T02:05:09;18.80;;;4.15;;
68074;SDS011;54864;52.002;5.468;2023-03-25T02:06:19;15.68;;;4.00;;
68074;SDS011;54864;52.002;5.468;2023-03-25T02:07:25;17.55;;;3.58;;
68074;SDS011;54864;52.002;5.468;2023-03-25T02:08:30;17.75;;;3.55;;
68074;SDS011;54864;52.002;5.468;2023-03-25T02:09:32;17.42;;;3.75;;
68074;SDS011;54864;52.002;5.468;2023-03-25T02:10:35;17.25;;;3.75;;
68074;SDS011;54864;52.002;5.468;2023-03-25T02:11:36;19.27;;;3.92;;
68074;SDS011;54864;52.002;5.468;2023-03-25T02:12:39;17.05;;;4.03;;
68074;SDS011;54864;52.002;5.468;2023-03-25T02:13:40;19.55;;;4.03;;
68074;SDS011;54864;52.002;5.468;2023-03-25T02:14:42;18.65;;;4.20;;
68074;SDS011;54864;52.002;5.468;2023-03-25T02:17:14;14.90;;;3.97;;
68074;SDS011;54864;52.002;5.468;2023-03-25T02:18:25;19.58;;;4.43;;
68074;SDS011;54864;52.002;5.468;2023-03-25T02:24:20;19.52;;;4.47;;
68074;SDS011;54864;52.002;5.468;2023-03-25T02:26:04;16.65;;;4.32;;
68074;SDS011;54864;52.002;5.468;2023-03-25T02:27:40;16.35;;;3.80;;
68074;SDS011;54864;52.002;5.468;2023-03-25T02:28:49;19.63;;;4.40;;
68074;SDS011;54864;52.002;5.468;2023-03-25T02:30:04;14.27;;;3.65;;
68074;SDS011;54864;52.002;5.468;2023-03-25T02:31:29;15.85;;;3.92;;
68074;SDS011;54864;52.002;5.468;2023-03-25T02:32:54;16.75;;;4.13;;
68074;SDS011;54864;52.002;5.468;2023-03-25T02:36:13;15.35;;;3.50;;
68074;SDS011;54864;52.002;5.468;2023-03-25T02:39:09;19.75;;;4.85;;
68074;SDS011;54864;52.002;5.468;2023-03-25T02:40:17;15.57;;;3.90;;
68074;SDS011;54864;52.002;5.468;2023-03-25T02:41:25;21.20;;;4.65;;
68074;SDS011;54864;52.002;5.468;2023-03-25T02:42:33;17.60;;;4.05;;
68074;SDS011;54864;52.002;5.468;2023-03-25T02:43:40;20.38;;;4.38;;
68074;SDS011;54864;52.002;5.468;2023-03-25T02:44:46;18.02;;;4.30;;
68074;SDS011;54864;52.002;5.468;2023-03-25T02:45:55;23.00;;;4.65;;
68074;SDS011;54864;52.002;5.468;2023-03-25T02:46:59;20.63;;;4.68;;
68074;SDS011;54864;52.002;5.468;2023-03-25T02:48:05;16.42;;;4.35;;
68074;SDS011;54864;52.002;5.468;2023-03-25T02:49:12;16.73;;;4.32;;
68074;SDS011;54864;52.002;5.468;2023-03-25T02:50:20;15.00;;;4.75;;
68074;SDS011;54864;52.002;5.468;2023-03-25T02:51:26;11.88;;;3.60;;
68074;SDS011;54864;52.002;5.468;2023-03-25T02:52:32;14.10;;;3.63;;
68074;SDS011;54864;52.002;5.468;2023-03-25T02:53:38;14.02;;;3.50;;
68074;SDS011;54864;52.002;5.468;2023-03-25T02:54:44;14.88;;;4.00;;
68074;SDS011;54864;52.002;5.468;2023-03-25T02:55:48;14.35;;;4.28;;
68074;SDS011;54864;52.002;5.468;2023-03-25T02:56:53;12.65;;;4.05;;
68074;SDS011;54864;52.002;5.468;2023-03-25T02:57:56;15.00;;;4.40;;
68074;SDS011;54864;52.002;5.468;2023-03-25T02:59:00;12.23;;;4.40;;
68074;SDS011;54864;52.002;5.468;2023-03-25T03:00:04;14.80;;;4.10;;
68074;SDS011;54864;52.002;5.468;2023-03-25T03:01:17;10.88;;;3.92;;
68074;SDS011;54864;52.002;5.468;2023-03-25T03:02:18;12.85;;;4.05;;
68074;SDS011;54864;52.002;5.468;2023-03-25T03:03:22;15.95;;;4.03;;
68074;SDS011;54864;52.002;5.468;2023-03-25T03:04:23;15.40;;;4.68;;
68074;SDS011;54864;52.002;5.468;2023-03-25T03:05:26;11.87;;;4.00;;
68074;SDS011;54864;52.002;5.468;2023-03-25T03:06:27;17.98;;;4.65;;
68074;SDS011;54864;52.002;5.468;2023-03-25T03:07:31;12.27;;;4.55;;
68074;SDS011;54864;52.002;5.468;2023-03-25T03:08:42;10.73;;;4.40;;
68074;SDS011;54864;52.002;5.468;2023-03-25T03:09:59;14.43;;;4.68;;
68074;SDS011;54864;52.002;5.468;2023-03-25T03:11:20;13.27;;;4.55;;
68074;SDS011;54864;52.002;5.468;2023-03-25T03:12:29;12.52;;;4.47;;
68074;SDS011;54864;52.002;5.468;2023-03-25T03:13:42;11.52;;;4.82;;
68074;SDS011;54864;52.002;5.468;2023-03-25T03:14:58;12.63;;;4.88;;
68074;SDS011;54864;52.002;5.468;2023-03-25T03:16:10;10.88;;;4.80;;
68074;SDS011;54864;52.002;5.468;2023-03-25T03:17:20;14.43;;;5.10;;
68074;SDS011;54864;52.002;5.468;2023-03-25T03:18:33;16.48;;;5.05;;
68074;SDS011;54864;52.002;5.468;2023-03-25T03:19:44;14.18;;;5.18;;
68074;SDS011;54864;52.002;5.468;2023-03-25T03:20:53;12.38;;;4.88;;
68074;SDS011;54864;52.002;5.468;2023-03-25T03:22:00;13.65;;;4.75;;
68074;SDS011;54864;52.002;5.468;2023-03-25T03:23:20;15.30;;;5.18;;
68074;SDS011;54864;52.002;5.468;2023-03-25T03:24:29;16.08;;;6.05;;
68074;SDS011;54864;52.002;5.468;2023-03-25T03:25:36;12.02;;;4.45;;
68074;SDS011;54864;52.002;5.468;2023-03-25T03:26:45;19.33;;;5.68;;
68074;SDS011;54864;52.002;5.468;2023-03-25T03:27:54;19.95;;;5.55;;
68074;SDS011;54864;52.002;5.468;2023-03-25T03:29:02;13.35;;;4.85;;
68074;SDS011;54864;52.002;5.468;2023-03-25T03:30:19;14.90;;;4.85;;
68074;SDS011;54864;52.002;5.468;2023-03-25T03:31:26;18.35;;;5.43;;
68074;SDS011;54864;52.002;5.468;2023-03-25T03:32:34;13.73;;;5.20;;
68074;SDS011;54864;52.002;5.468;2023-03-25T03:33:42;16.23;;;5.60;;
68074;SDS011;54864;52.002;5.468;2023-03-25T03:34:50;16.13;;;5.00;;
68074;SDS011;54864;52.002;5.468;2023-03-25T03:35:53;17.75;;;5.97;;
68074;SDS011;54864;52.002;5.468;2023-03-25T03:37:01;20.38;;;5.63;;
68074;SDS011;54864;52.002;5.468;2023-03-25T03:38:06;14.32;;;5.05;;
68074;SDS011;54864;52.002;5.468;2023-03-25T03:39:13;23.73;;;6.10;;
68074;SDS011;54864;52.002;5.468;2023-03-25T03:40:20;17.15;;;5.88;;
68074;SDS011;54864;52.002;5.468;2023-03-25T03:41:24;17.23;;;5.75;;
68074;SDS011;54864;52.002;5.468;2023-03-25T03:42:28;16.10;;;4.95;;
68074;SDS011;54864;52.002;5.468;2023-03-25T03:43:34;17.17;;;5.38;;
68074;SDS011;54864;52.002;5.468;2023-03-25T03:44:39;12.73;;;4.65;;
68074;SDS011;54864;52.002;5.468;2023-03-25T03:45:47;17.63;;;5.63;;
68074;SDS011;54864;52.002;5.468;2023-03-25T03:46:51;18.77;;;5.88;;
68074;SDS011;54864;52.002;5.468;2023-03-25T03:47:58;18.80;;;5.35;;
68074;SDS011;54864;52.002;5.468;2023-03-25T03:49:06;17.30;;;5.25;;
68074;SDS011;54864;52.002;5.468;2023-03-25T03:50:18;14.82;;;5.00;;
68074;SDS011;54864;52.002;5.468;2023-03-25T03:51:21;14.30;;;4.90;;
68074;SDS011;54864;52.002;5.468;2023-03-25T03:52:29;17.50;;;4.60;;
68074;SDS011;54864;52.002;5.468;2023-03-25T03:53:37;16.08;;;5.00;;
68074;SDS011;54864;52.002;5.468;2023-03-25T03:54:43;23.20;;;5.70;;
68074;SDS011;54864;52.002;5.468;2023-03-25T03:55:50;21.30;;;5.72;;
68074;SDS011;54864;52.002;5.468;2023-03-25T03:56:58;16.98;;;5.63;;
68074;SDS011;54864;52.002;5.468;2023-03-25T03:58:03;19.40;;;5.75;;
68074;SDS011;54864;52.002;5.468;2023-03-25T03:59:09;20.60;;;5.68;;
68074;SDS011;54864;52.002;5.468;2023-03-25T04:00:16;23.80;;;5.75;;
68074;SDS011;54864;52.002;5.468;2023-03-25T04:01:21;19.67;;;5.55;;
68074;SDS011;54864;52.002;5.468;2023-03-25T04:02:29;21.55;;;5.22;;
68074;SDS011;54864;52.002;5.468;2023-03-25T04:03:39;18.65;;;5.47;;
68074;SDS011;54864;52.002;5.468;2023-03-25T04:04:43;17.23;;;5.57;;
68074;SDS011;54864;52.002;5.468;2023-03-25T04:05:49;21.58;;;5.15;;
68074;SDS011;54864;52.002;5.468;2023-03-25T04:07:00;16.08;;;5.43;;
68074;SDS011;54864;52.002;5.468;2023-03-25T04:08:10;25.73;;;6.47;;
68074;SDS011;54864;52.002;5.468;2023-03-25T04:09:20;18.85;;;5.55;;
68074;SDS011;54864;52.002;5.468;2023-03-25T04:10:28;18.52;;;6.07;;
68074;SDS011;54864;52.002;5.468;2023-03-25T04:11:36;16.75;;;5.60;;
68074;SDS011;54864;52.002;5.468;2023-03-25T04:12:43;17.90;;;5.05;;
68074;SDS011;54864;52.002;5.468;2023-03-25T04:13:46;18.67;;;5.43;;
68074;SDS011;54864;52.002;5.468;2023-03-25T04:14:52;16.70;;;5.30;;
68074;SDS011;54864;52.002;5.468;2023-03-25T04:15:55;19.98;;;6.40;;
68074;SDS011;54864;52.002;5.468;2023-03-25T04:16:59;23.08;;;5.90;;
68074;SDS011;54864;52.002;5.468;2023-03-25T04:18:00;23.98;;;5.60;;
68074;SDS011;54864;52.002;5.468;2023-03-25T04:19:03;18.38;;;5.97;;
68074;SDS011;54864;52.002;5.468;2023-03-25T04:20:04;22.23;;;6.20;;
68074;SDS011;54864;52.002;5.468;2023-03-25T04:21:08;22.70;;;5.75;;
68074;SDS011;54864;52.002;5.468;2023-03-25T04:22:09;21.98;;;5.63;;
68074;SDS011;54864;52.002;5.468;2023-03-25T04:23:18;22.70;;;5.60;;
68074;SDS011;54864;52.002;5.468;2023-03-25T04:24:20;20.23;;;5.25;;
68074;SDS011;54864;52.002;5.468;2023-03-25T04:25:23;21.10;;;5.38;;
68074;SDS011;54864;52.002;5.468;2023-03-25T04:26:24;19.90;;;5.93;;
68074;SDS011;54864;52.002;5.468;2023-03-25T04:27:27;19.00;;;5.38;;
68074;SDS011;54864;52.002;5.468;2023-03-25T04:28:28;24.92;;;5.15;;
68074;SDS011;54864;52.002;5.468;2023-03-25T04:29:31;22.63;;;5.63;;
68074;SDS011;54864;52.002;5.468;2023-03-25T04:30:32;21.40;;;5.43;;
68074;SDS011;54864;52.002;5.468;2023-03-25T04:31:36;18.63;;;5.78;;
68074;SDS011;54864;52.002;5.468;2023-03-25T04:32:45;21.20;;;5.45;;
68074;SDS011;54864;52.002;5.468;2023-03-25T04:33:47;19.95;;;5.57;;
68074;SDS011;54864;52.002;5.468;2023-03-25T04:34:49;19.90;;;5.57;;
68074;SDS011;54864;52.002;5.468;2023-03-25T04:35:51;23.53;;;6.03;;
68074;SDS011;54864;52.002;5.468;2023-03-25T04:36:52;22.13;;;6.57;;
68074;SDS011;54864;52.002;5.468;2023-03-25T04:37:54;20.55;;;5.93;;
68074;SDS011;54864;52.002;5.468;2023-03-25T04:38:56;20.55;;;6.25;;
68074;SDS011;54864;52.002;5.468;2023-03-25T04:39:58;17.60;;;6.05;;
68074;SDS011;54864;52.002;5.468;2023-03-25T04:40:59;19.50;;;5.85;;
68074;SDS011;54864;52.002;5.468;2023-03-25T04:42:00;17.65;;;5.40;;
68074;SDS011;54864;52.002;5.468;2023-03-25T04:43:03;17.50;;;6.05;;
68074;SDS011;54864;52.002;5.468;2023-03-25T04:44:05;22.23;;;6.05;;
68074;SDS011;54864;52.002;5.468;2023-03-25T04:45:07;25.02;;;6.03;;
68074;SDS011;54864;52.002;5.468;2023-03-25T04:46:19;27.05;;;6.13;;
68074;SDS011;54864;52.002;5.468;2023-03-25T04:47:21;19.35;;;6.07;;
68074;SDS011;54864;52.002;5.468;2023-03-25T04:48:25;20.75;;;5.63;;
68074;SDS011;54864;52.002;5.468;2023-03-25T04:49:29;28.60;;;6.28;;
68074;SDS011;54864;52.002;5.468;2023-03-25T04:50:31;24.67;;;5.85;;
68074;SDS011;54864;52.002;5.468;2023-03-25T04:51:32;21.90;;;5.78;;
68074;SDS011;54864;52.002;5.468;2023-03-25T04:52:34;18.15;;;5.45;;
68074;SDS011;54864;52.002;5.468;2023-03-25T04:53:37;23.90;;;5.82;;
68074;SDS011;54864;52.002;5.468;2023-03-25T04:54:39;25.40;;;5.97;;
68074;SDS011;54864;52.002;5.468;2023-03-25T04:55:40;25.23;;;5.82;;
68074;SDS011;54864;52.002;5.468;2023-03-25T04:56:47;19.50;;;4.97;;
68074;SDS011;54864;52.002;5.468;2023-03-25T04:57:49;20.87;;;5.30;;
68074;SDS011;54864;52.002;5.468;2023-03-25T04:58:53;18.02;;;5.85;;
68074;SDS011;54864;52.002;5.468;2023-03-25T04:59:54;23.63;;;5.80;;
68074;SDS011;54864;52.002;5.468;2023-03-25T05:00:55;23.38;;;5.95;;
68074;SDS011;54864;52.002;5.468;2023-03-25T05:02:05;21.70;;;5.90;;
68074;SDS011;54864;52.002;5.468;2023-03-25T05:03:18;19.00;;;5.97;;
68074;SDS011;54864;52.002;5.468;2023-03-25T05:04:23;34.65;;;6.43;;
68074;SDS011;54864;52.002;5.468;2023-03-25T05:05:24;25.67;;;6.72;;
68074;SDS011;54864;52.002;5.468;2023-03-25T05:06:25;26.40;;;6.57;;
68074;SDS011;54864;52.002;5.468;2023-03-25T05:07:28;19.98;;;5.80;;
68074;SDS011;54864;52.002;5.468;2023-03-25T05:08:29;26.33;;;7.07;;
68074;SDS011;54864;52.002;5.468;2023-03-25T05:09:30;20.63;;;5.75;;
68074;SDS011;54864;52.002;5.468;2023-03-25T05:10:31;17.83;;;5.37;;
68074;SDS011;54864;52.002;5.468;2023-03-25T05:11:35;18.92;;;5.50;;
68074;SDS011;54864;52.002;5.468;2023-03-25T05:12:38;19.05;;;4.78;;
68074;SDS011;54864;52.002;5.468;2023-03-25T05:13:40;16.60;;;4.55;;
68074;SDS011;54864;52.002;5.468;2023-03-25T05:14:42;12.27;;;4.17;;
68074;SDS011;54864;52.002;5.468;2023-03-25T05:15:44;14.63;;;3.58;;
68074;SDS011;54864;52.002;5.468;2023-03-25T05:16:45;9.98;;;2.83;;
68074;SDS011;54864;52.002;5.468;2023-03-25T05:17:48;10.82;;;3.40;;
68074;SDS011;54864;52.002;5.468;2023-03-25T05:18:48;11.43;;;3.78;;
68074;SDS011;54864;52.002;5.468;2023-03-25T05:19:50;12.52;;;3.05;;
68074;SDS011;54864;52.002;5.468;2023-03-25T05:20:52;13.00;;;3.70;;
68074;SDS011;54864;52.002;5.468;2023-03-25T05:21:54;17.05;;;4.03;;
68074;SDS011;54864;52.002;5.468;2023-03-25T05:22:56;14.82;;;4.35;;
68074;SDS011;54864;52.002;5.468;2023-03-25T05:23:57;17.38;;;3.97;;
68074;SDS011;54864;52.002;5.468;2023-03-25T05:25:00;19.13;;;4.57;;
68074;SDS011;54864;52.002;5.468;2023-03-25T05:26:03;19.38;;;4.20;;
68074;SDS011;54864;52.002;5.468;2023-03-25T05:27:05;17.73;;;4.35;;
68074;SDS011;54864;52.002;5.468;2023-03-25T05:28:07;20.58;;;4.43;;
68074;SDS011;54864;52.002;5.468;2023-03-25T05:29:15;16.17;;;4.60;;
68074;SDS011;54864;52.002;5.468;2023-03-25T05:30:20;17.45;;;4.93;;
68074;SDS011;54864;52.002;5.468;2023-03-25T05:31:21;19.05;;;4.97;;
68074;SDS011;54864;52.002;5.468;2023-03-25T05:32:23;16.70;;;4.75;;
68074;SDS011;54864;52.002;5.468;2023-03-25T05:33:24;23.60;;;5.93;;
68074;SDS011;54864;52.002;5.468;2023-03-25T05:34:26;27.52;;;5.88;;
68074;SDS011;54864;52.002;5.468;2023-03-25T05:35:29;17.13;;;4.47;;
68074;SDS011;54864;52.002;5.468;2023-03-25T05:36:30;14.65;;;4.75;;
68074;SDS011;54864;52.002;5.468;2023-03-25T05:37:32;17.42;;;5.53;;
68074;SDS011;54864;52.002;5.468;2023-03-25T05:38:33;20.48;;;5.50;;
68074;SDS011;54864;52.002;5.468;2023-03-25T05:39:36;23.60;;;6.13;;
68074;SDS011;54864;52.002;5.468;2023-03-25T05:40:38;19.73;;;6.60;;
68074;SDS011;54864;52.002;5.468;2023-03-25T05:41:39;25.52;;;6.72;;
68074;SDS011;54864;52.002;5.468;2023-03-25T05:42:41;24.55;;;5.80;;
68074;SDS011;54864;52.002;5.468;2023-03-25T05:43:46;15.15;;;4.95;;
68074;SDS011;54864;52.002;5.468;2023-03-25T05:45:08;23.23;;;6.00;;
68074;SDS011;54864;52.002;5.468;2023-03-25T05:46:11;23.38;;;5.75;;
68074;SDS011;54864;52.002;5.468;2023-03-25T05:47:18;23.42;;;5.13;;
68074;SDS011;54864;52.002;5.468;2023-03-25T05:48:22;19.98;;;6.30;;
68074;SDS011;54864;52.002;5.468;2023-03-25T05:49:23;18.80;;;6.67;;
68074;SDS011;54864;52.002;5.468;2023-03-25T05:50:24;27.25;;;6.25;;
68074;SDS011;54864;52.002;5.468;2023-03-25T05:51:27;25.00;;;6.63;;
68074;SDS011;54864;52.002;5.468;2023-03-25T05:52:32;27.98;;;6.22;;
68074;SDS011;54864;52.002;5.468;2023-03-25T05:53:33;25.93;;;6.63;;
68074;SDS011;54864;52.002;5.468;2023-03-25T05:54:34;18.90;;;6.78;;
68074;SDS011;54864;52.002;5.468;2023-03-25T05:55:38;22.05;;;7.13;;
68074;SDS011;54864;52.002;5.468;2023-03-25T05:56:40;19.33;;;6.65;;
68074;SDS011;54864;52.002;5.468;2023-03-25T05:57:41;23.05;;;6.53;;
68074;SDS011;54864;52.002;5.468;2023-03-25T05:58:43;21.95;;;7.05;;
68074;SDS011;54864;52.002;5.468;2023-03-25T05:59:44;19.23;;;6.55;;
68074;SDS011;54864;52.002;5.468;2023-03-25T06:00:47;19.88;;;7.00;;
68074;SDS011;54864;52.002;5.468;2023-03-25T06:01:49;23.43;;;7.17;;
68074;SDS011;54864;52.002;5.468;2023-03-25T06:02:50;16.52;;;6.00;;
68074;SDS011;54864;52.002;5.468;2023-03-25T06:03:51;21.65;;;6.47;;
68074;SDS011;54864;52.002;5.468;2023-03-25T06:04:53;23.30;;;6.63;;
68074;SDS011;54864;52.002;5.468;2023-03-25T06:05:54;24.00;;;6.85;;
68074;SDS011;54864;52.002;5.468;2023-03-25T06:06:56;15.93;;;5.97;;
68074;SDS011;54864;52.002;5.468;2023-03-25T06:07:57;28.03;;;6.93;;
68074;SDS011;54864;52.002;5.468;2023-03-25T06:09:01;26.30;;;6.40;;
68074;SDS011;54864;52.002;5.468;2023-03-25T06:10:02;21.25;;;6.72;;
68074;SDS011;54864;52.002;5.468;2023-03-25T06:11:05;23.17;;;6.10;;
68074;SDS011;54864;52.002;5.468;2023-03-25T06:12:08;18.20;;;5.85;;
68074;SDS011;54864;52.002;5.468;2023-03-25T06:13:10;21.45;;;6.65;;
68074;SDS011;54864;52.002;5.468;2023-03-25T06:14:10;21.92;;;5.72;;
68074;SDS011;54864;52.002;5.468;2023-03-25T06:15:16;25.95;;;7.03;;
68074;SDS011;54864;52.002;5.468;2023-03-25T06:16:18;21.75;;;6.25;;
68074;SDS011;54864;52.002;5.468;2023-03-25T06:17:22;21.80;;;6.28;;
68074;SDS011;54864;52.002;5.468;2023-03-25T06:18:23;25.67;;;6.70;;
68074;SDS011;54864;52.002;5.468;2023-03-25T06:19:25;27.88;;;6.07;;
68074;SDS011;54864;52.002;5.468;2023-03-25T06:20:26;21.75;;;6.05;;
68074;SDS011;54864;52.002;5.468;2023-03-25T06:21:28;30.17;;;6.18;;
68074;SDS011;54864;52.002;5.468;2023-03-25T06:22:31;23.67;;;5.95;;
68074;SDS011;54864;52.002;5.468;2023-03-25T06:23:36;22.80;;;6.10;;
68074;SDS011;54864;52.002;5.468;2023-03-25T06:24:38;24.55;;;6.60;;
68074;SDS011;54864;52.002;5.468;2023-03-25T06:25:41;28.27;;;6.40;;
68074;SDS011;54864;52.002;5.468;2023-03-25T06:26:41;23.38;;;6.22;;
68074;SDS011;54864;52.002;5.468;2023-03-25T06:27:43;25.23;;;5.80;;
68074;SDS011;54864;52.002;5.468;2023-03-25T06:28:44;30.35;;;6.88;;
68074;SDS011;54864;52.002;5.468;2023-03-25T06:29:47;31.17;;;6.40;;
68074;SDS011;54864;52.002;5.468;2023-03-25T06:30:48;26.35;;;6.47;;
68074;SDS011;54864;52.002;5.468;2023-03-25T06:31:50;23.65;;;6.03;;
68074;SDS011;54864;52.002;5.468;2023-03-25T06:32:52;28.92;;;5.88;;